createdAt,value
2023-04-15T00:00:24.419Z,54.55
2023-04-15T00:01:24.370Z,54.39
2023-04-15T00:02:24.432Z,55.57
2023-04-15T00:03:24.454Z,55.11
2023-04-15T00:04:24.425Z,57.13
2023-04-15T00:05:24.517Z,56.71
2023-04-15T00:06:24.331Z,56.47
2023-04-15T00:07:24.556Z,54.51
2023-04-15T00:08:24.827Z,54.40
2023-04-15T00:09:30.632Z,56.61
2023-04-15T00:10:24.354Z,54.26
2023-04-15T00:11:24.339Z,54.42
2023-04-15T00:12:24.322Z,54.35
2023-04-15T00:13:24.318Z,54.53
2023-04-15T00:14:24.335Z,54.21
2023-04-15T00:15:24.283Z,54.34
2023-04-15T00:16:24.364Z,54.58
2023-04-15T00:17:24.606Z,54.46
2023-04-15T00:18:24.287Z,56.84
2023-04-15T00:19:24.292Z,55.34
2023-04-15T00:20:24.282Z,54.20
2023-04-15T00:21:24.295Z,54.88
2023-04-15T00:22:24.282Z,56.77
2023-04-15T00:23:24.411Z,57.39
2023-04-15T00:24:24.212Z,54.32
2023-04-15T00:25:24.245Z,54.36
2023-04-15T00:26:24.243Z,54.38
2023-04-15T00:27:24.172Z,54.48
2023-04-15T00:28:24.242Z,54.29
2023-04-15T00:29:24.244Z,54.62
2023-04-15T00:30:24.202Z,54.54
2023-04-15T00:31:24.320Z,54.94
2023-04-15T00:32:24.229Z,54.78
2023-04-15T00:33:24.164Z,54.37
2023-04-15T00:34:24.167Z,54.37
2023-04-15T00:35:24.183Z,54.57
2023-04-15T00:36:24.166Z,58.12
2023-04-15T00:37:24.138Z,57.99
2023-04-15T00:38:24.124Z,56.41
2023-04-15T00:39:24.127Z,54.31
2023-04-15T00:40:24.125Z,54.58
2023-04-15T00:41:24.175Z,55.86
2023-04-15T00:42:24.131Z,55.21
2023-04-15T00:43:24.100Z,55.40
2023-04-15T00:44:24.122Z,55.09
2023-04-15T00:45:24.088Z,54.90
2023-04-15T00:46:24.270Z,54.79
2023-04-15T00:47:24.113Z,54.07
2023-04-15T00:48:24.092Z,54.04
2023-04-15T00:49:24.088Z,54.61
2023-04-15T00:50:24.094Z,54.17
2023-04-15T00:51:24.043Z,55.99
2023-04-15T00:52:24.107Z,56.34
2023-04-15T00:53:24.092Z,54.43
2023-04-15T00:54:24.045Z,55.25
2023-04-15T00:55:24.004Z,55.29
2023-04-15T00:56:24.046Z,54.76
2023-04-15T00:57:24.028Z,55.13
2023-04-15T00:58:24.010Z,55.09
2023-04-15T00:59:24.047Z,54.31
2023-04-15T01:00:24.128Z,54.88
2023-04-15T01:01:24.035Z,54.87
2023-04-15T01:02:24.217Z,55.24
2023-04-15T01:04:24.087Z,54.95
2023-04-15T01:05:24.047Z,54.45
2023-04-15T01:06:23.975Z,54.77
2023-04-15T01:07:23.972Z,55.38
2023-04-15T01:08:23.971Z,55.74
2023-04-15T01:09:23.924Z,54.81
2023-04-15T01:10:23.939Z,54.58
2023-04-15T01:11:24.015Z,54.48
2023-04-15T01:12:23.937Z,54.47
2023-04-15T01:13:23.928Z,54.66
2023-04-15T01:14:23.929Z,54.74
2023-04-15T01:15:23.887Z,54.60
2023-04-15T01:16:23.906Z,54.55
2023-04-15T01:17:23.950Z,54.53
2023-04-15T01:18:23.884Z,54.52
2023-04-15T01:19:23.840Z,54.87
2023-04-15T01:20:23.842Z,55.12
2023-04-15T01:21:23.805Z,55.01
2023-04-15T01:22:23.852Z,54.93
2023-04-15T01:23:24.300Z,54.82
2023-04-15T01:24:23.845Z,54.80
2023-04-15T01:25:23.804Z,55.67
2023-04-15T01:26:23.807Z,54.78
2023-04-15T01:27:23.806Z,54.87
2023-04-15T01:28:23.809Z,54.71
2023-04-15T01:29:23.851Z,55.42
2023-04-15T01:30:23.803Z,56.70
2023-04-15T01:31:23.794Z,56.08
2023-04-15T01:32:23.789Z,54.69
2023-04-15T01:33:23.764Z,54.64
2023-04-15T01:34:23.760Z,54.87
2023-04-15T01:35:23.801Z,54.59
2023-04-15T01:36:23.775Z,54.91
2023-04-15T01:37:23.725Z,54.55
2023-04-15T01:38:23.725Z,54.55
2023-04-15T01:39:23.683Z,54.64
2023-04-15T01:40:23.723Z,55.88
2023-04-15T01:41:23.769Z,54.70
2023-04-15T01:42:23.692Z,54.55
2023-04-15T01:43:23.643Z,54.65
2023-04-15T01:44:23.685Z,55.12
2023-04-15T01:45:23.688Z,55.29
2023-04-15T01:46:23.703Z,56.32
2023-04-15T01:47:23.679Z,55.15
2023-04-15T01:48:23.647Z,54.56
2023-04-15T01:49:23.605Z,54.82
2023-04-15T01:50:23.648Z,54.63
2023-04-15T01:51:23.649Z,54.61
2023-04-15T01:52:23.651Z,54.73
2023-04-15T01:53:23.609Z,54.83
2023-04-15T01:54:23.611Z,54.77
2023-04-15T01:55:23.612Z,54.59
2023-04-15T01:56:23.609Z,54.86
2023-04-15T01:57:23.566Z,54.86
2023-04-15T01:58:23.611Z,54.90
2023-04-15T01:59:23.609Z,55.04
2023-04-15T02:00:23.538Z,55.04
2023-04-15T02:01:23.658Z,54.64
2023-04-15T02:02:23.681Z,54.32
2023-04-15T02:03:23.660Z,55.85
2023-04-15T02:04:23.575Z,56.20
2023-04-15T02:05:23.570Z,55.04
2023-04-15T02:06:23.542Z,54.81
2023-04-15T02:07:23.535Z,54.83
2023-04-15T02:08:23.552Z,54.74
2023-04-15T02:09:23.532Z,54.62
2023-04-15T02:10:23.543Z,54.56
2023-04-15T02:11:23.531Z,54.77
2023-04-15T02:12:23.531Z,54.78
2023-04-15T02:13:23.488Z,54.81
2023-04-15T02:14:23.496Z,54.58
2023-04-15T02:15:23.490Z,54.63
2023-04-15T02:16:23.528Z,54.97
2023-04-15T02:17:23.525Z,54.91
2023-04-15T02:18:23.448Z,55.11
2023-04-15T02:19:23.455Z,54.96
2023-04-15T02:20:23.490Z,55.34
2023-04-15T02:21:23.451Z,56.14
2023-04-15T02:22:23.416Z,55.10
2023-04-15T02:23:23.457Z,55.60
2023-04-15T02:24:23.414Z,55.75
2023-04-15T02:25:23.408Z,57.94
2023-04-15T02:26:23.419Z,56.51
2023-04-15T02:27:23.413Z,55.36
2023-04-15T02:28:23.336Z,57.60
2023-04-15T02:29:23.814Z,54.79
2023-04-15T02:30:23.365Z,54.78
2023-04-15T02:31:23.374Z,54.74
2023-04-15T02:32:23.438Z,54.96
2023-04-15T02:33:23.298Z,55.40
2023-04-15T02:34:23.290Z,54.97
2023-04-15T02:35:23.341Z,55.20
2023-04-15T02:36:23.329Z,55.72
2023-04-15T02:37:23.305Z,55.21
2023-04-15T02:38:23.289Z,55.01
2023-04-15T02:39:23.290Z,55.38
2023-04-15T02:40:23.293Z,54.81
2023-04-15T02:41:23.343Z,55.94
2023-04-15T02:42:44.315Z,54.65
2023-04-15T02:43:23.265Z,54.97
2023-04-15T02:44:23.210Z,55.06
2023-04-15T02:45:23.253Z,56.85
2023-04-15T02:46:23.300Z,55.10
2023-04-15T02:47:23.320Z,54.83
2023-04-15T02:48:23.253Z,54.88
2023-04-15T02:49:23.254Z,55.05
2023-04-15T02:50:23.217Z,56.52
2023-04-15T02:51:23.215Z,55.48
2023-04-15T02:52:23.217Z,58.77
2023-04-15T02:53:23.216Z,57.01
2023-04-15T02:54:23.168Z,55.48
2023-04-15T02:55:23.211Z,55.23
2023-04-15T02:56:23.107Z,55.69
2023-04-15T02:57:23.101Z,55.94
2023-04-15T02:58:23.097Z,56.46
2023-04-15T02:59:23.159Z,56.01
2023-04-15T03:00:23.093Z,56.13
2023-04-15T03:01:23.093Z,55.07
2023-04-15T03:02:23.149Z,55.14
2023-04-15T03:03:23.145Z,55.03
2023-04-15T03:04:23.057Z,54.82
2023-04-15T03:05:23.091Z,54.49
2023-04-15T03:06:23.070Z,55.32
2023-04-15T03:07:23.070Z,55.89
2023-04-15T03:08:23.029Z,55.01
2023-04-15T03:09:23.034Z,55.27
2023-04-15T03:10:23.036Z,55.53
2023-04-15T03:11:23.042Z,55.42
2023-04-15T03:12:23.055Z,55.19
2023-04-15T03:13:23.001Z,55.10
2023-04-15T03:14:22.986Z,55.67
2023-04-15T03:15:22.988Z,56.25
2023-04-15T03:16:23.006Z,58.66
2023-04-15T03:17:23.057Z,57.51
2023-04-15T03:18:22.952Z,57.16
2023-04-15T03:19:22.972Z,56.61
2023-04-15T03:20:22.981Z,57.24
2023-04-15T03:21:22.959Z,56.91
2023-04-15T03:22:22.918Z,57.05
2023-04-15T03:23:22.966Z,56.80
2023-04-15T03:24:22.920Z,56.56
2023-04-15T03:25:22.946Z,57.66
2023-04-15T03:26:22.900Z,57.12
2023-04-15T03:27:22.909Z,57.81
2023-04-15T03:28:22.901Z,56.50
2023-04-15T03:29:22.916Z,56.31
2023-04-15T03:30:22.877Z,56.28
2023-04-15T03:31:22.932Z,55.90
2023-04-15T03:32:58.908Z,55.93
2023-04-15T03:33:22.864Z,56.60
2023-04-15T03:34:22.881Z,58.65
2023-04-15T03:35:23.264Z,57.34
2023-04-15T03:36:22.836Z,57.40
2023-04-15T03:37:22.831Z,57.17
2023-04-15T03:38:22.843Z,55.75
2023-04-15T03:39:22.835Z,56.16
2023-04-15T03:40:22.837Z,56.49
2023-04-15T03:41:22.865Z,58.45
2023-04-15T03:42:22.793Z,56.31
2023-04-15T03:43:22.796Z,56.76
2023-04-15T03:44:22.794Z,58.31
2023-04-15T03:45:22.775Z,58.18
2023-04-15T03:46:22.814Z,58.11
2023-04-15T03:47:22.801Z,58.99
2023-04-15T03:48:22.846Z,58.49
2023-04-15T03:49:22.731Z,58.46
2023-04-15T03:50:22.730Z,59.41
2023-04-15T03:51:22.749Z,58.80
2023-04-15T03:52:22.732Z,59.25
2023-04-15T03:53:22.790Z,58.86
2023-04-15T03:54:22.739Z,59.68
2023-04-15T03:55:22.707Z,58.92
2023-04-15T03:56:43.693Z,58.14
2023-04-15T03:57:22.668Z,57.61
2023-04-15T03:58:22.689Z,59.11
2023-04-15T03:59:22.707Z,57.81
2023-04-15T04:00:22.659Z,59.16
2023-04-15T04:01:22.718Z,57.61
2023-04-15T04:02:22.896Z,57.69
2023-04-15T04:03:22.795Z,57.78
2023-04-15T04:04:22.772Z,60.40
2023-04-15T04:05:22.674Z,59.23
2023-04-15T04:06:22.647Z,57.26
2023-04-15T04:07:22.608Z,58.65
2023-04-15T04:08:22.620Z,58.93
2023-04-15T04:09:22.685Z,61.31
2023-04-15T04:10:22.591Z,59.74
2023-04-15T04:11:22.637Z,60.48
2023-04-15T04:12:22.615Z,60.75
2023-04-15T04:13:22.570Z,59.93
2023-04-15T04:14:22.573Z,62.36
2023-04-15T04:15:22.609Z,61.44
2023-04-15T04:16:22.670Z,60.38
2023-04-15T04:17:22.628Z,61.73
2023-04-15T04:18:22.522Z,59.49
2023-04-15T04:19:22.532Z,57.54
2023-04-15T04:20:22.590Z,58.77
2023-04-15T04:21:22.528Z,59.37
2023-04-15T04:22:22.524Z,60.89
2023-04-15T04:23:22.623Z,59.32
2023-04-15T04:24:22.507Z,59.94
2023-04-15T04:25:22.528Z,59.21
2023-04-15T04:26:22.474Z,60.37
2023-04-15T04:27:22.452Z,57.99
2023-04-15T04:28:22.475Z,58.19
2023-04-15T04:29:22.506Z,59.38
2023-04-15T04:30:22.458Z,59.79
2023-04-15T04:31:22.475Z,60.12
2023-04-15T04:32:22.479Z,58.00
2023-04-15T04:33:22.456Z,59.01
2023-04-15T04:34:22.464Z,56.95
2023-04-15T04:35:22.478Z,58.94
2023-04-15T04:36:22.397Z,59.61
2023-04-15T04:37:22.552Z,60.09
2023-04-15T04:38:22.405Z,59.56
2023-04-15T04:39:22.388Z,60.25
2023-04-15T04:40:22.387Z,63.67
2023-04-15T04:41:22.635Z,59.87
2023-04-15T04:42:22.385Z,60.54
2023-04-15T04:43:22.374Z,56.60
2023-04-15T04:44:22.387Z,57.47
2023-04-15T04:45:22.351Z,56.52
2023-04-15T04:46:22.454Z,60.17
2023-04-15T04:47:22.409Z,63.56
2023-04-15T04:48:22.333Z,56.47
2023-04-15T04:49:22.319Z,58.18
2023-04-15T04:50:25.237Z,59.53
2023-04-15T04:51:22.332Z,57.66
2023-04-15T04:52:22.297Z,58.40
2023-04-15T04:53:22.343Z,58.86
2023-04-15T04:54:22.274Z,56.64
2023-04-15T04:55:22.304Z,56.60
2023-04-15T04:56:22.271Z,58.32
2023-04-15T04:57:22.264Z,56.10
2023-04-15T04:58:22.270Z,55.51
2023-04-15T04:59:22.333Z,57.51
2023-04-15T05:00:22.244Z,57.14
2023-04-15T05:01:22.277Z,57.66
2023-04-15T05:02:22.337Z,59.23
2023-04-15T05:03:22.377Z,56.87
2023-04-15T05:04:22.217Z,58.31
2023-04-15T05:05:22.249Z,58.11
2023-04-15T05:06:22.209Z,58.81
2023-04-15T05:07:22.197Z,56.88
2023-04-15T05:08:22.201Z,58.51
2023-04-15T05:09:22.197Z,59.37
2023-04-15T05:10:22.168Z,56.01
2023-04-15T05:11:22.206Z,56.39
2023-04-15T05:12:22.170Z,56.45
2023-04-15T05:13:22.187Z,57.08
2023-04-15T05:14:23.424Z,57.69
2023-04-15T05:15:44.572Z,57.14
2023-04-15T05:16:22.185Z,57.35
2023-04-15T05:17:22.215Z,57.79
2023-04-15T05:18:22.130Z,56.90
2023-04-15T05:19:22.115Z,56.48
2023-04-15T05:20:31.863Z,56.63
2023-04-15T05:21:22.087Z,56.66
2023-04-15T05:22:22.109Z,55.88
2023-04-15T05:23:22.189Z,55.37
2023-04-15T05:24:22.101Z,55.92
2023-04-15T05:25:22.100Z,55.71
2023-04-15T05:26:22.113Z,56.47
2023-04-15T05:27:22.067Z,56.68
2023-04-15T05:28:22.091Z,57.50
2023-04-15T05:29:22.090Z,58.20
2023-04-15T05:30:22.075Z,58.12
2023-04-15T05:31:22.124Z,57.73
2023-04-15T05:32:22.068Z,58.14
2023-04-15T05:33:22.041Z,61.42
2023-04-15T05:34:22.008Z,57.66
2023-04-15T05:35:22.053Z,58.68
2023-04-15T05:36:21.998Z,57.90
2023-04-15T05:37:22.024Z,56.11
2023-04-15T05:38:21.977Z,56.91
2023-04-15T05:39:21.998Z,57.22
2023-04-15T05:40:22.105Z,56.68
2023-04-15T05:41:22.171Z,55.43
2023-04-15T05:42:22.016Z,56.65
2023-04-15T05:43:22.026Z,56.85
2023-04-15T05:44:21.945Z,56.07
2023-04-15T05:45:21.940Z,55.24
2023-04-15T05:46:21.977Z,57.02
2023-04-15T05:47:22.760Z,59.28
2023-04-15T05:48:21.916Z,57.01
2023-04-15T05:49:21.895Z,56.64
2023-04-15T05:50:22.041Z,58.39
2023-04-15T05:51:21.951Z,56.34
2023-04-15T05:52:21.929Z,57.26
2023-04-15T05:53:21.928Z,56.19
2023-04-15T05:54:21.970Z,57.13
2023-04-15T05:55:22.023Z,56.26
2023-04-15T05:56:21.901Z,56.07
2023-04-15T05:57:21.860Z,57.95
2023-04-15T05:58:21.900Z,59.41
2023-04-15T05:59:21.913Z,56.94
2023-04-15T06:00:21.927Z,57.29
2023-04-15T06:01:21.950Z,58.80
2023-04-15T06:02:21.914Z,56.48
2023-04-15T06:03:21.897Z,56.93
2023-04-15T06:04:21.946Z,59.00
2023-04-15T06:05:22.068Z,56.35
2023-04-15T06:06:21.916Z,58.03
2023-04-15T06:07:21.800Z,58.80
2023-04-15T06:08:21.787Z,59.65
2023-04-15T06:09:21.781Z,59.93
2023-04-15T06:10:21.833Z,58.96
2023-04-15T06:11:21.803Z,59.90
2023-04-15T06:12:21.792Z,58.55
2023-04-15T06:13:21.737Z,55.44
2023-04-15T06:14:21.795Z,56.39
2023-04-15T06:15:21.743Z,57.50
2023-04-15T06:16:21.778Z,58.54
2023-04-15T06:17:21.781Z,57.69
2023-04-15T06:18:21.719Z,56.71
2023-04-15T06:19:21.700Z,55.57
2023-04-15T06:20:23.757Z,56.43
2023-04-15T06:21:21.935Z,56.88
2023-04-15T06:22:21.753Z,58.00
2023-04-15T06:23:21.719Z,56.51
2023-04-15T06:24:21.706Z,56.35
2023-04-15T06:25:21.878Z,59.50
2023-04-15T06:26:21.637Z,58.14
2023-04-15T06:27:21.663Z,58.40
2023-04-15T06:28:21.775Z,57.39
2023-04-15T06:29:21.744Z,56.78
2023-04-15T06:30:23.921Z,57.57
2023-04-15T06:31:28.406Z,58.83
2023-04-15T06:32:21.642Z,56.80
2023-04-15T06:33:21.613Z,57.51
2023-04-15T06:34:22.101Z,57.26
2023-04-15T06:35:22.681Z,61.04
2023-04-15T06:36:22.154Z,57.58
2023-04-15T06:37:22.055Z,55.79
2023-04-15T06:38:22.418Z,56.58
2023-04-15T06:39:21.617Z,58.38
2023-04-15T06:40:21.564Z,56.87
2023-04-15T06:41:21.632Z,56.58
2023-04-15T06:42:21.640Z,58.08
2023-04-15T06:43:21.721Z,56.49
2023-04-15T06:44:21.919Z,57.43
2023-04-15T06:45:21.905Z,57.03
2023-04-15T06:46:22.169Z,58.07
2023-04-15T06:47:21.743Z,56.56
2023-04-15T06:48:21.768Z,59.45
2023-04-15T06:49:22.315Z,56.43
2023-04-15T06:50:22.044Z,57.37
2023-04-15T06:51:22.344Z,59.85
2023-04-15T06:52:22.049Z,59.23
2023-04-15T06:53:21.892Z,57.87
2023-04-15T06:54:21.600Z,58.49
2023-04-15T06:55:22.023Z,58.77
2023-04-15T06:56:22.101Z,59.21
2023-04-15T06:57:22.209Z,57.65
2023-04-15T06:58:22.340Z,59.07
2023-04-15T06:59:22.297Z,57.54
2023-04-15T07:00:22.161Z,58.62
2023-04-15T07:01:22.252Z,58.53
2023-04-15T07:02:22.148Z,57.19
2023-04-15T07:03:21.658Z,55.23
2023-04-15T07:04:21.760Z,58.20
2023-04-15T07:05:22.539Z,57.45
2023-04-15T07:06:21.625Z,59.49
2023-04-15T07:07:22.125Z,57.11
2023-04-15T07:08:21.458Z,58.77
2023-04-15T07:09:22.200Z,56.85
2023-04-15T07:10:23.927Z,58.09
2023-04-15T07:11:22.475Z,58.57
2023-04-15T07:12:22.200Z,57.38
2023-04-15T07:13:21.958Z,58.35
2023-04-15T07:14:22.182Z,58.79
2023-04-15T07:15:21.998Z,57.53
2023-04-15T07:16:21.843Z,56.27
2023-04-15T07:17:22.199Z,56.26
2023-04-15T07:18:21.438Z,57.43
2023-04-15T07:19:21.670Z,61.05
2023-04-15T07:20:21.890Z,59.48
2023-04-15T07:21:22.143Z,58.34
2023-04-15T07:22:21.798Z,55.40
2023-04-15T07:23:22.431Z,57.95
2023-04-15T07:24:22.017Z,59.16
2023-04-15T07:25:22.015Z,56.75
2023-04-15T07:26:21.950Z,58.96
2023-04-15T07:27:21.934Z,59.45
2023-04-15T07:28:22.043Z,56.76
2023-04-15T07:34:23.460Z,55.45
2023-04-15T07:35:21.946Z,56.30
2023-04-15T07:36:21.997Z,56.41
2023-04-15T07:37:22.027Z,55.59
2023-04-15T07:38:22.051Z,57.16
2023-04-15T07:39:22.056Z,58.32
2023-04-15T07:40:22.309Z,58.72
2023-04-15T07:41:21.969Z,55.63
2023-04-15T07:42:21.962Z,56.93
2023-04-15T07:43:21.910Z,58.77
2023-04-15T07:44:21.415Z,56.25
2023-04-15T07:45:21.866Z,56.77
2023-04-15T07:46:22.053Z,57.99
2023-04-15T07:47:21.634Z,58.57
2023-04-15T07:48:21.774Z,57.98
2023-04-15T07:49:21.575Z,58.44
2023-04-15T07:50:21.850Z,57.45
2023-04-15T07:51:21.503Z,58.34
2023-04-15T07:52:22.256Z,58.62
2023-04-15T07:53:21.844Z,59.79
2023-04-15T07:54:21.543Z,60.61
2023-04-15T07:55:21.261Z,57.61
2023-04-15T07:56:21.361Z,57.10
2023-04-15T07:57:21.775Z,59.52
2023-04-15T07:58:21.728Z,59.98
2023-04-15T07:59:21.881Z,55.88
2023-04-15T08:00:21.609Z,56.96
2023-04-15T08:01:21.592Z,58.79
2023-04-15T08:02:21.752Z,57.43
2023-04-15T08:03:21.771Z,58.57
2023-04-15T08:04:22.302Z,57.25
2023-04-15T08:05:21.652Z,57.96
2023-04-15T08:06:21.807Z,57.99
2023-04-15T08:07:21.640Z,56.25
2023-04-15T08:08:21.679Z,58.57
2023-04-15T08:09:22.784Z,58.29
2023-04-15T08:10:21.999Z,58.92
2023-04-15T08:11:21.489Z,56.81
2023-04-15T08:12:21.445Z,56.30
2023-04-15T08:13:21.522Z,56.59
2023-04-15T08:14:29.908Z,57.12
2023-04-15T08:15:22.996Z,57.33
2023-04-15T08:16:21.845Z,57.47
2023-04-15T08:17:21.407Z,59.07
2023-04-15T08:18:21.537Z,57.19
2023-04-15T08:19:21.828Z,56.83
2023-04-15T08:20:21.991Z,56.12
2023-04-15T08:21:22.145Z,58.66
2023-04-15T08:22:22.458Z,57.94
2023-04-15T08:23:21.780Z,57.02
2023-04-15T08:24:21.685Z,56.71
2023-04-15T08:25:21.366Z,57.62
2023-04-15T08:26:21.079Z,56.32
2023-04-15T08:27:22.011Z,57.29
2023-04-15T08:28:21.388Z,55.19
2023-04-15T08:29:21.354Z,58.93
2023-04-15T08:30:21.532Z,58.20
2023-04-15T08:31:21.440Z,61.24
2023-04-15T08:32:21.627Z,59.25
2023-04-15T08:33:21.810Z,58.22
2023-04-15T08:34:21.420Z,61.15
2023-04-15T08:35:21.321Z,57.58
2023-04-15T08:36:21.639Z,59.26
2023-04-15T08:37:21.563Z,58.58
2023-04-15T08:38:21.310Z,58.10
2023-04-15T08:39:21.833Z,60.09
2023-04-15T08:40:21.495Z,57.47
2023-04-15T08:41:21.502Z,57.74
2023-04-15T08:42:21.588Z,60.20
2023-04-15T08:43:21.499Z,60.28
2023-04-15T08:44:21.416Z,56.59
2023-04-15T08:45:21.723Z,58.56
2023-04-15T08:46:21.602Z,58.56
2023-04-15T08:47:21.372Z,59.26
2023-04-15T08:48:21.425Z,59.76
2023-04-15T08:49:21.447Z,58.98
2023-04-15T08:50:21.229Z,56.25
2023-04-15T08:51:23.228Z,58.18
2023-04-15T08:52:21.438Z,57.98
2023-04-15T08:53:21.520Z,59.45
2023-04-15T08:54:22.348Z,57.14
2023-04-15T08:55:21.462Z,59.42
2023-04-15T08:56:22.531Z,58.89
2023-04-15T08:57:21.556Z,56.98
2023-04-15T08:58:21.466Z,59.61
2023-04-15T08:59:21.453Z,58.18
2023-04-15T09:00:21.473Z,60.07
2023-04-15T09:01:21.496Z,59.23
2023-04-15T09:02:21.576Z,58.86
2023-04-15T09:03:22.377Z,59.72
2023-04-15T09:04:22.311Z,59.49
2023-04-15T09:05:21.350Z,58.93
2023-04-15T09:06:21.360Z,57.79
2023-04-15T09:07:21.356Z,60.10
2023-04-15T09:08:21.430Z,60.59
2023-04-15T09:09:21.700Z,56.69
2023-04-15T09:10:21.410Z,59.02
2023-04-15T09:11:21.416Z,59.64
2023-04-15T09:12:21.332Z,58.42
2023-04-15T09:13:21.435Z,57.87
2023-04-15T09:14:21.397Z,59.32
2023-04-15T09:15:21.815Z,56.70
2023-04-15T09:16:21.397Z,59.20
2023-04-15T09:17:21.336Z,60.08
2023-04-15T09:18:21.411Z,58.42
2023-04-15T09:19:21.267Z,59.25
2023-04-15T09:20:21.314Z,60.51
2023-04-15T09:21:21.693Z,60.02
2023-04-15T09:22:21.303Z,58.03
2023-04-15T09:23:22.294Z,58.11
2023-04-15T09:24:21.315Z,61.73
2023-04-15T09:25:21.291Z,58.73
2023-04-15T09:26:21.315Z,58.72
2023-04-15T09:27:21.758Z,59.24
2023-04-15T09:28:21.270Z,60.53
2023-04-15T09:29:21.343Z,56.31
2023-04-15T09:30:21.284Z,58.78
2023-04-15T09:31:21.212Z,58.91
2023-04-15T09:32:21.311Z,61.75
2023-04-15T09:33:22.658Z,59.99
2023-04-15T09:34:21.243Z,58.96
2023-04-15T09:35:21.220Z,58.61
2023-04-15T09:36:21.218Z,57.14
2023-04-15T09:37:31.618Z,58.41
2023-04-15T09:38:23.225Z,58.94
2023-04-15T09:39:21.723Z,59.03
2023-04-15T09:40:22.198Z,59.91
2023-04-15T09:41:21.146Z,59.28
2023-04-15T09:42:21.309Z,59.29
2023-04-15T09:43:21.135Z,59.46
2023-04-15T09:44:21.103Z,58.00
2023-04-15T09:45:21.631Z,60.11
2023-04-15T09:46:22.266Z,58.90
2023-04-15T09:47:21.158Z,60.63
2023-04-15T09:48:21.138Z,59.46
2023-04-15T09:49:21.219Z,57.33
2023-04-15T09:50:21.123Z,58.05
2023-04-15T09:51:21.818Z,60.77
2023-04-15T09:52:21.143Z,58.64
2023-04-15T09:53:21.089Z,61.04
2023-04-15T09:54:21.043Z,58.92
2023-04-15T09:55:21.027Z,60.33
2023-04-15T09:56:21.011Z,59.22
2023-04-15T09:57:21.484Z,58.63
2023-04-15T09:58:21.094Z,58.52
2023-04-15T09:59:21.888Z,59.99
2023-04-15T10:00:20.905Z,58.83
2023-04-15T10:01:20.970Z,62.06
2023-04-15T10:02:21.067Z,62.23
2023-04-15T10:03:21.804Z,61.72
2023-04-15T10:04:20.921Z,58.51
2023-04-15T10:05:22.108Z,58.43
2023-04-15T10:06:20.956Z,58.95
2023-04-15T10:07:21.011Z,59.07
2023-04-15T10:08:20.925Z,58.01
2023-04-15T10:09:21.978Z,60.85
2023-04-15T10:10:20.946Z,59.96
2023-04-15T10:11:20.823Z,60.93
2023-04-15T10:12:20.996Z,59.97
2023-04-15T10:13:20.924Z,60.60
2023-04-15T10:14:20.959Z,58.87
2023-04-15T10:15:22.478Z,59.61
2023-04-15T10:16:22.011Z,59.57
2023-04-15T10:17:20.941Z,61.07
2023-04-15T10:18:20.940Z,60.62
2023-04-15T10:19:20.938Z,60.69
2023-04-15T10:20:20.901Z,60.87
2023-04-15T10:21:21.313Z,58.17
2023-04-15T10:22:21.755Z,59.82
2023-04-15T10:23:21.914Z,61.48
2023-04-15T10:24:20.955Z,61.06
2023-04-15T10:25:20.927Z,58.70
2023-04-15T10:26:20.856Z,59.66
2023-04-15T10:27:21.391Z,60.10
2023-04-15T10:28:20.885Z,61.67
2023-04-15T10:29:20.832Z,59.45
2023-04-15T10:30:20.696Z,58.76
2023-04-15T10:31:20.824Z,59.95
2023-04-15T10:32:20.875Z,59.73
2023-04-15T10:33:21.276Z,59.20
2023-04-15T10:34:20.723Z,59.51
2023-04-15T10:35:20.476Z,60.05
2023-04-15T10:36:21.176Z,61.34
2023-04-15T10:37:20.695Z,61.23
2023-04-15T10:38:20.775Z,57.84
2023-04-15T10:39:21.214Z,59.57
2023-04-15T10:40:20.682Z,60.93
2023-04-15T10:41:22.041Z,58.93
2023-04-15T10:42:20.786Z,58.57
2023-04-15T10:43:20.726Z,59.89
2023-04-15T10:44:20.753Z,59.60
2023-04-15T10:45:22.960Z,58.47
2023-04-15T10:46:20.700Z,59.02
2023-04-15T10:47:20.594Z,58.91
2023-04-15T10:48:20.704Z,63.38
2023-04-15T10:49:20.555Z,59.96
2023-04-15T10:50:20.626Z,61.19
2023-04-15T10:51:21.034Z,59.86
2023-04-15T10:52:20.405Z,61.27
2023-04-15T10:53:21.809Z,60.60
2023-04-15T10:54:20.552Z,58.80
2023-04-15T10:55:20.502Z,60.94
2023-04-15T10:56:20.500Z,58.29
2023-04-15T10:57:21.162Z,59.43
2023-04-15T10:58:20.646Z,60.56
2023-04-15T10:59:21.954Z,59.87
2023-04-15T11:00:20.599Z,61.68
2023-04-15T11:01:20.601Z,59.13
2023-04-15T11:02:20.718Z,59.70
2023-04-15T11:03:21.221Z,62.03
2023-04-15T11:04:20.534Z,61.28
2023-04-15T11:05:20.572Z,59.02
2023-04-15T11:06:20.433Z,61.21
2023-04-15T11:07:20.456Z,60.82
2023-04-15T11:08:20.598Z,60.80
2023-04-15T11:09:20.954Z,59.17
2023-04-15T11:10:20.470Z,61.09
2023-04-15T11:11:20.557Z,61.26
2023-04-15T11:12:20.522Z,60.55
2023-04-15T11:13:20.483Z,57.89
2023-04-15T11:14:20.468Z,61.76
2023-04-15T11:15:21.052Z,61.82
2023-04-15T11:16:21.491Z,61.32
2023-04-15T11:17:21.390Z,61.66
2023-04-15T11:18:20.523Z,59.43
2023-04-15T11:19:20.562Z,61.22
2023-04-15T11:20:23.281Z,62.04
2023-04-15T11:21:20.942Z,59.98
2023-04-15T11:22:20.439Z,59.31
2023-04-15T11:23:20.428Z,58.72
2023-04-15T11:24:20.468Z,60.43
2023-04-15T11:25:20.412Z,60.61
2023-04-15T11:26:20.457Z,58.66
2023-04-15T11:27:20.942Z,59.97
2023-04-15T11:28:20.434Z,60.59
2023-04-15T11:29:20.309Z,59.93
2023-04-15T11:30:20.393Z,61.65
2023-04-15T11:31:20.498Z,59.63
2023-04-15T11:32:20.438Z,58.06
2023-04-15T11:33:20.913Z,60.57
2023-04-15T11:34:20.360Z,60.24
2023-04-15T11:35:20.369Z,60.15
2023-04-15T11:36:20.361Z,58.84
2023-04-15T11:37:20.358Z,58.95
2023-04-15T11:38:20.300Z,62.09
2023-04-15T11:39:20.740Z,62.14
2023-04-15T11:40:20.137Z,61.67
2023-04-15T11:41:20.320Z,60.08
2023-04-15T11:42:20.274Z,59.34
2023-04-15T11:43:20.236Z,60.85
2023-04-15T11:44:20.377Z,59.79
2023-04-15T11:45:20.780Z,59.41
2023-04-15T11:46:20.302Z,59.06
2023-04-15T11:47:20.316Z,59.99
2023-04-15T11:48:20.194Z,58.46
2023-04-15T11:49:20.117Z,61.20
2023-04-15T11:50:20.306Z,59.19
2023-04-15T11:51:20.831Z,61.74
2023-04-15T11:52:22.974Z,60.58
2023-04-15T11:53:20.208Z,61.80
2023-04-15T11:54:20.182Z,60.86
2023-04-15T11:55:21.187Z,58.95
2023-04-15T11:56:20.253Z,57.52
2023-04-15T11:57:20.701Z,60.98
2023-04-15T11:58:20.253Z,59.81
2023-04-15T11:59:21.225Z,61.10
2023-04-15T12:00:19.995Z,60.90
2023-04-15T12:01:20.107Z,63.15
2023-04-15T12:02:20.186Z,62.06
2023-04-15T12:03:20.797Z,61.34
2023-04-15T12:04:22.540Z,62.15
2023-04-15T12:05:21.121Z,58.76
2023-04-15T12:06:20.134Z,59.96
2023-04-15T12:07:19.989Z,58.58
2023-04-15T12:08:20.072Z,58.95
2023-04-15T12:09:20.517Z,59.52
2023-04-15T12:10:19.799Z,59.03
2023-04-15T12:11:20.024Z,59.42
2023-04-15T12:12:20.100Z,60.47
2023-04-15T12:13:23.081Z,59.14
2023-04-15T12:14:20.158Z,59.06
2023-04-15T12:15:22.601Z,59.96
2023-04-15T12:16:20.153Z,62.97
2023-04-15T12:17:20.127Z,60.69
2023-04-15T12:18:20.016Z,61.97
2023-04-15T12:19:19.992Z,62.69
2023-04-15T12:20:20.064Z,61.56
2023-04-15T12:21:20.577Z,63.32
2023-04-15T12:22:20.110Z,58.74
2023-04-15T12:23:20.020Z,60.80
2023-04-15T12:24:20.070Z,58.30
2023-04-15T12:25:20.011Z,63.00
2023-04-15T12:26:19.899Z,60.41
2023-04-15T12:27:20.519Z,61.37
2023-04-15T12:28:20.962Z,61.29
2023-04-15T12:29:20.035Z,61.25
2023-04-15T12:30:20.031Z,58.47
2023-04-15T12:31:19.992Z,58.49
2023-04-15T12:32:20.011Z,60.52
2023-04-15T12:33:21.591Z,62.01
2023-04-15T12:34:19.997Z,60.98
2023-04-15T12:35:19.985Z,60.43
2023-04-15T12:36:19.924Z,60.46
2023-04-15T12:37:21.034Z,62.69
2023-04-15T12:38:19.929Z,60.15
2023-04-15T12:39:20.410Z,60.84
2023-04-15T12:40:19.958Z,63.41
2023-04-15T12:41:19.949Z,59.01
2023-04-15T12:42:19.925Z,59.74
2023-04-15T12:43:19.885Z,61.76
2023-04-15T12:44:19.757Z,58.32
2023-04-15T12:45:20.288Z,61.21
2023-04-15T12:46:19.954Z,60.43
2023-04-15T12:47:19.846Z,62.74
2023-04-15T12:48:19.879Z,60.98
2023-04-15T12:49:19.831Z,59.48
2023-04-15T12:50:19.832Z,58.51
2023-04-15T12:51:20.366Z,60.26
2023-04-15T12:52:19.837Z,60.81
2023-04-15T12:53:19.826Z,60.51
2023-04-15T12:54:19.774Z,63.09
2023-04-15T12:55:19.858Z,62.72
2023-04-15T12:56:19.807Z,61.42
2023-04-15T12:57:20.347Z,61.57
2023-04-15T12:58:19.785Z,61.33